CYGW

Kuujjuarapik Airport

Kuujjuarapik, Quebec, Canada
METAR CYGW 201300Z AUTO 02005KT 9SM BKN055 BKN072 08/07 A3002 RMK SLP170
Observed Flight Rules
Jul-20 @ 13:00 UTC (2 hours ago) Visual Flight Rules
Wind Visibility Clouds
20° at 5 knots 9 miles
  • Broken at 5,500' AGL
  • Broken at 7,200' AGL
Temperatures Readings
Current 8°C / 46°F
Dewpoint 7°C / 45°F
Humidity 93%
Altimeter 30.02" Hg
Pressure 1017 hPa
Elevation 12
METAR CYGW 201300Z AUTO 02005KT 9SM BKN055 BKN072 08/07 A3002 RMK SLP170
Observed Flight Rules
Jul-20 @ 13:00 UTC
(2 hours ago)
VFR
Wind Visibility
20° at 5 knots 9 miles
Clouds
  • Broken at 5,500' AGL
  • Broken at 7,200' AGL
Temperature Dewpoint
8°C / 46°F 7°C / 45°F
Humidity Altimeter Pressure
93% 30.02" Hg 1017 hPa